createdAt,value
2022-11-29T00:00:48.753Z,100176.59
2022-11-29T00:03:34.051Z,100177.25
2022-11-29T00:06:26.500Z,100172.97
2022-11-29T00:09:12.911Z,100174.44
2022-11-29T00:12:12.733Z,100176.31
2022-11-29T00:14:57.380Z,100181.38
2022-11-29T00:17:42.129Z,100178.06
2022-11-29T00:20:26.829Z,100181.38
2022-11-29T00:23:11.667Z,100172.19
2022-11-29T00:26:06.146Z,100167.91
2022-11-29T00:28:51.114Z,100170.59
2022-11-29T00:31:35.633Z,100177.66
2022-11-29T00:34:20.299Z,100172.03
2022-11-29T00:37:05.225Z,100171.38
2022-11-29T00:39:50.146Z,100168.34
2022-11-29T00:42:34.715Z,100161.78
2022-11-29T00:45:19.551Z,100164.31
2022-11-29T00:48:04.594Z,100167.13
2022-11-29T00:50:49.240Z,100172.06
2022-11-29T00:53:34.883Z,100173.78
2022-11-29T00:56:19.682Z,100164.31
2022-11-29T00:59:04.362Z,100160.75
2022-11-29T01:01:49.477Z,100155.00
2022-11-29T01:04:34.269Z,100153.41
2022-11-29T01:07:19.456Z,100155.78
2022-11-29T01:10:04.805Z,100150.63
2022-11-29T01:12:49.759Z,100145.41
2022-11-29T01:15:35.484Z,100137.81
2022-11-29T01:18:20.360Z,100138.63
2022-11-29T01:21:11.697Z,100141.81
2022-11-29T01:23:56.890Z,100141.00
2022-11-29T01:26:41.373Z,100139.41
2022-11-29T01:29:26.154Z,100140.34
2022-11-29T01:32:12.111Z,100133.66
2022-11-29T01:34:57.052Z,100130.88
2022-11-29T01:37:41.960Z,100128.34
2022-11-29T01:40:26.753Z,100124.06
2022-11-29T01:43:20.404Z,100124.88
2022-11-29T01:46:05.297Z,100109.03
2022-11-29T01:48:57.286Z,100112.06
2022-11-29T01:51:55.365Z,100116.63
2022-11-29T01:54:47.526Z,100119.16
2022-11-29T01:57:34.623Z,100118.88
2022-11-29T02:00:19.884Z,100122.34
2022-11-29T02:03:11.883Z,100121.28
2022-11-29T02:05:56.596Z,100123.81
2022-11-29T02:08:42.898Z,100117.94
2022-11-29T02:12:02.094Z,100123.81
2022-11-29T02:15:04.594Z,100130.59
2022-11-29T02:18:03.686Z,100124.88
2022-11-29T02:21:06.810Z,100112.22
2022-11-29T02:24:28.908Z,100110.50
2022-11-29T02:27:16.672Z,100126.34
2022-11-29T02:30:16.394Z,100120.22
2022-11-29T02:33:22.128Z,100119.25
2022-11-29T02:36:29.689Z,100111.16
2022-11-29T02:39:41.957Z,100113.69
2022-11-29T02:42:29.395Z,100112.72
2022-11-29T02:45:41.033Z,100114.50
2022-11-29T02:48:35.478Z,100108.88
2022-11-29T02:51:32.193Z,100110.34
2022-11-29T02:54:41.436Z,100109.44
2022-11-29T02:57:56.473Z,100107.28
2022-11-29T03:00:56.583Z,100109.00
2022-11-29T03:03:54.776Z,100108.09
2022-11-29T03:06:57.914Z,100103.81
2022-11-29T03:10:32.106Z,100102.06
2022-11-29T03:13:42.484Z,100113.00
2022-11-29T03:16:50.799Z,100108.88
2022-11-29T03:19:51.073Z,100104.06
2022-11-29T03:23:08.026Z,100106.59
2022-11-29T03:25:55.928Z,100108.88
2022-11-29T03:28:49.431Z,100108.88
2022-11-29T03:31:38.597Z,100110.63
2022-11-29T03:34:32.095Z,100110.47
2022-11-29T03:37:21.991Z,100113.66
2022-11-29T03:40:09.013Z,100116.06
2022-11-29T03:43:00.581Z,100107.53
2022-11-29T03:46:02.596Z,100117.25
2022-11-29T03:48:55.963Z,100116.19
2022-11-29T03:51:51.442Z,100114.44
2022-11-29T03:54:48.209Z,100114.44
2022-11-29T03:58:04.813Z,100119.50
2022-11-29T04:00:49.433Z,100121.94
2022-11-29T04:03:55.799Z,100119.41
2022-11-29T04:06:50.091Z,100121.94
2022-11-29T04:09:59.663Z,100125.28
2022-11-29T04:13:15.088Z,100120.84
2022-11-29T04:16:21.443Z,100119.13
2022-11-29T04:19:22.519Z,100120.72
2022-11-29T04:22:26.107Z,100114.56
2022-11-29T04:25:35.186Z,100117.09
2022-11-29T04:28:57.107Z,100124.59
2022-11-29T04:32:11.573Z,100124.44
2022-11-29T04:35:28.729Z,100125.25
2022-11-29T04:38:44.755Z,100121.78
2022-11-29T04:42:06.123Z,100128.44
2022-11-29T04:45:04.207Z,100129.38
2022-11-29T04:48:14.861Z,100134.97
2022-11-29T04:51:26.627Z,100135.75
2022-11-29T04:54:29.878Z,100128.81
2022-11-29T04:57:34.335Z,100129.63
2022-11-29T05:00:22.105Z,100133.75
2022-11-29T05:03:15.879Z,100136.16
2022-11-29T05:06:44.372Z,100130.44
2022-11-29T05:09:52.426Z,100131.88
2022-11-29T05:13:15.577Z,100135.88
2022-11-29T05:16:42.583Z,100139.22
2022-11-29T05:20:18.284Z,100141.50
2022-11-29T05:23:27.392Z,100135.63
2022-11-29T05:26:27.221Z,100144.94
2022-11-29T06:54:40.860Z,100193.91
2022-11-29T06:57:44.065Z,100195.91
2022-11-29T07:00:58.558Z,100196.72
2022-11-29T07:04:12.201Z,100204.97
2022-11-29T07:07:35.547Z,100209.78
2022-11-29T07:13:30.246Z,100210.00
2022-11-29T07:16:45.417Z,100202.53
2022-11-29T07:19:50.720Z,100208.91
2022-11-29T07:23:25.356Z,100202.78
2022-11-29T07:26:59.719Z,100204.88
2022-11-29T07:30:05.667Z,100214.63
2022-11-29T07:33:00.336Z,100216.09
2022-11-29T07:36:19.920Z,100210.75
2022-11-29T07:40:05.278Z,100204.72
2022-11-29T07:43:35.923Z,100207.25
2022-11-29T07:46:37.023Z,100203.50
2022-11-29T07:49:42.514Z,100211.88
2022-11-29T07:52:39.269Z,100211.75
2022-11-29T07:55:49.950Z,100206.03
2022-11-29T07:58:41.586Z,100211.63
2022-11-29T08:01:44.524Z,100206.53
2022-11-29T08:04:45.750Z,100202.25
2022-11-29T08:07:49.813Z,100209.31
2022-11-29T08:10:44.033Z,100207.59
2022-11-29T08:13:40.757Z,100216.88
2022-11-29T08:16:34.159Z,100215.78
2022-11-29T08:19:18.811Z,100208.81
2022-11-29T08:22:03.797Z,100215.78
2022-11-29T08:24:52.208Z,100213.13
2022-11-29T08:27:52.069Z,100216.16
2022-11-29T08:30:37.387Z,100213.34
2022-11-29T08:33:22.401Z,100218.94
2022-11-29T08:36:18.473Z,100207.69
2022-11-29T08:39:29.632Z,100210.75
2022-11-29T08:43:10.821Z,100205.47
2022-11-29T08:47:03.889Z,100210.41
2022-11-29T08:50:30.228Z,100211.69
2022-11-29T08:53:45.545Z,100205.41
2022-11-29T09:04:15.300Z,100202.28
2022-11-29T09:07:02.306Z,100195.53
2022-11-29T09:09:47.770Z,100194.44
2022-11-29T09:13:06.526Z,100189.72
2022-11-29T09:16:21.960Z,100195.94
2022-11-29T09:19:54.787Z,100179.53
2022-11-29T09:22:45.547Z,100184.50
2022-11-29T09:25:33.515Z,100182.09
2022-11-29T09:28:18.483Z,100185.88
2022-11-29T09:31:04.666Z,100183.81
2022-11-29T09:33:49.598Z,100183.97
2022-11-29T09:36:34.613Z,100192.25
2022-11-29T09:39:45.201Z,100189.41
2022-11-29T09:43:06.384Z,100182.09
2022-11-29T09:46:02.363Z,100183.03
2022-11-29T09:53:01.708Z,100192.97
2022-11-29T09:56:00.771Z,100189.34
2022-11-29T09:58:57.051Z,100192.19
2022-11-29T10:01:58.118Z,100190.28
2022-11-29T10:04:52.558Z,100186.88
2022-11-29T10:07:47.329Z,100185.28
2022-11-29T10:11:05.780Z,100188.63
2022-11-29T10:13:59.192Z,100191.44
2022-11-29T10:16:50.459Z,100183.81
2022-11-29T10:19:50.314Z,100178.59
2022-11-29T10:23:01.325Z,100183.25
2022-11-29T10:25:54.968Z,100181.84
2022-11-29T10:28:50.887Z,100177.31
2022-11-29T10:31:42.575Z,100173.25
2022-11-29T10:34:30.419Z,100181.06
2022-11-29T10:37:35.371Z,100177.44
2022-11-29T10:41:04.584Z,100183.03
2022-11-29T10:44:48.890Z,100179.38
2022-11-29T10:54:59.445Z,100179.09
2022-11-29T10:58:09.134Z,100173.38
2022-11-29T11:01:16.453Z,100181.34
2022-11-29T11:04:32.408Z,100173.94
2022-11-29T11:07:34.413Z,100173.94
2022-11-29T11:10:28.466Z,100178.75
2022-11-29T11:13:35.602Z,100174.78
2022-11-29T11:16:37.801Z,100171.66
2022-11-29T11:19:36.472Z,100177.69
2022-11-29T11:22:39.254Z,100172.41
2022-11-29T11:25:37.100Z,100169.06
2022-11-29T11:28:28.360Z,100172.91
2022-11-29T11:34:34.754Z,100181.47
2022-11-29T11:37:29.897Z,100186.44
2022-11-29T11:40:33.888Z,100184.41
2022-11-29T11:43:21.215Z,100185.56
2022-11-29T11:46:08.123Z,100181.78
2022-11-29T11:48:53.455Z,100178.59
2022-11-29T11:51:42.266Z,100176.66
2022-11-29T11:54:28.839Z,100179.50
2022-11-29T11:57:17.740Z,100180.09
2022-11-29T12:00:06.998Z,100177.63
2022-11-29T12:03:58.525Z,100182.38
2022-11-29T12:06:51.403Z,100171.69
2022-11-29T12:09:42.528Z,100179.84
2022-11-29T12:12:40.732Z,100181.69
2022-11-29T12:15:33.892Z,100178.88
2022-11-29T12:18:41.671Z,100174.59
2022-11-29T12:21:32.620Z,100179.03
2022-11-29T12:24:40.058Z,100176.97
2022-11-29T12:27:34.393Z,100178.97
2022-11-29T12:30:25.530Z,100186.53
2022-11-29T12:33:29.771Z,100187.25
2022-11-29T12:36:46.915Z,100183.19
2022-11-29T12:39:50.309Z,100186.88
2022-11-29T12:42:59.190Z,100179.50
2022-11-29T12:45:45.057Z,100179.78
2022-11-29T12:48:39.641Z,100176.59
2022-11-29T12:51:42.786Z,100188.91
2022-11-29T12:54:42.495Z,100187.88
2022-11-29T12:57:39.202Z,100193.22
2022-11-29T13:00:28.493Z,100190.47
2022-11-29T13:03:26.873Z,100192.47
2022-11-29T13:06:47.071Z,100201.19
2022-11-29T13:09:47.516Z,100197.34
2022-11-29T13:12:41.341Z,100201.25
2022-11-29T13:15:46.075Z,100198.69
2022-11-29T13:18:44.671Z,100202.16
2022-11-29T13:21:44.133Z,100200.06
2022-11-29T13:24:50.542Z,100200.59
2022-11-29T13:27:41.989Z,100205.66
2022-11-29T13:30:27.135Z,100210.75
2022-11-29T13:33:16.379Z,100210.22
2022-11-29T13:36:38.191Z,100202.75
2022-11-29T13:39:44.526Z,100209.69
2022-11-29T13:42:57.260Z,100203.94
2022-11-29T13:46:26.676Z,100211.03
2022-11-29T13:49:39.834Z,100212.13
2022-11-29T13:52:38.836Z,100219.59
2022-11-29T13:55:30.701Z,100224.78
2022-11-29T13:58:33.334Z,100222.56
2022-11-29T14:01:18.228Z,100218.84
2022-11-29T14:04:06.784Z,100222.47
2022-11-29T14:07:02.645Z,100221.13
2022-11-29T14:10:06.248Z,100220.47
2022-11-29T14:12:55.233Z,100215.50
2022-11-29T14:15:41.454Z,100214.84
2022-11-29T14:18:41.254Z,100219.94
2022-11-29T14:21:45.917Z,100222.88
2022-11-29T14:24:36.550Z,100234.91
2022-11-29T14:27:21.459Z,100227.31
2022-11-29T14:30:24.828Z,100229.97
2022-11-29T14:33:28.288Z,100237.72
2022-11-29T14:36:54.245Z,100243.72
2022-11-29T14:39:46.363Z,100240.38
2022-11-29T14:42:31.347Z,100240.25
2022-11-29T14:45:27.622Z,100242.78
2022-11-29T14:48:31.158Z,100245.59
2022-11-29T14:51:18.789Z,100248.41
2022-11-29T14:54:15.347Z,100246.81
2022-11-29T14:57:38.546Z,100241.06
2022-11-29T15:00:29.422Z,100232.69
2022-11-29T15:03:20.850Z,100243.59
2022-11-29T15:06:26.232Z,100235.97
2022-11-29T15:09:20.315Z,100237.88
2022-11-29T15:12:13.848Z,100238.53
2022-11-29T15:15:35.716Z,100236.13
2022-11-29T15:19:05.201Z,100245.34
2022-11-29T15:22:17.474Z,100244.13
2022-11-29T15:25:11.529Z,100244.28
2022-11-29T15:27:58.456Z,100253.63
2022-11-29T15:30:43.556Z,100247.09
2022-11-29T15:33:28.919Z,100254.69
2022-11-29T15:36:23.572Z,100253.22
2022-11-29T15:39:24.794Z,100251.63
2022-11-29T15:42:13.041Z,100251.63
2022-11-29T15:44:57.956Z,100254.41
2022-11-29T15:47:42.843Z,100260.28
2022-11-29T15:50:33.145Z,100258.69
2022-11-29T15:54:11.646Z,100261.38
2022-11-29T15:57:13.126Z,100262.44
2022-11-29T16:00:01.658Z,100255.50
2022-11-29T16:02:57.518Z,100255.75
2022-11-29T16:05:42.612Z,100250.69
2022-11-29T16:08:33.559Z,100254.19
2022-11-29T16:11:22.907Z,100256.81
2022-11-29T16:14:10.539Z,100259.50
2022-11-29T16:17:00.033Z,100259.50
2022-11-29T16:19:46.306Z,100265.50
2022-11-29T16:22:31.846Z,100270.47
2022-11-29T16:25:19.779Z,100264.72
2022-11-29T16:28:05.379Z,100265.38
2022-11-29T16:30:50.466Z,100261.25
2022-11-29T16:33:37.672Z,100263.66
2022-11-29T16:36:25.949Z,100266.31
2022-11-29T16:39:20.082Z,100259.78
2022-11-29T16:42:24.650Z,100264.84
2022-11-29T16:45:29.169Z,100267.53
2022-11-29T16:48:29.030Z,100266.72
2022-11-29T16:51:14.515Z,100265.91
2022-11-29T16:54:45.051Z,100276.84
2022-11-29T16:57:31.190Z,100276.06
2022-11-29T17:00:31.934Z,100275.25
2022-11-29T17:03:18.479Z,100276.19
2022-11-29T17:06:03.161Z,100272.06
2022-11-29T17:08:53.774Z,100277.13
2022-11-29T17:11:38.400Z,100274.03
2022-11-29T17:14:23.476Z,100275.81
2022-11-29T17:17:13.806Z,100270.84
2022-11-29T17:19:58.317Z,100272.72
2022-11-29T17:22:43.275Z,100268.47
2022-11-29T17:25:28.422Z,100276.19
2022-11-29T17:28:13.289Z,100276.06
2022-11-29T17:30:57.853Z,100276.97
2022-11-29T17:33:43.290Z,100276.19
2022-11-29T17:36:27.830Z,100281.13
2022-11-29T17:39:14.885Z,100270.44
2022-11-29T17:41:59.478Z,100277.13
2022-11-29T17:44:44.559Z,100278.06
2022-11-29T17:47:29.460Z,100289.91
2022-11-29T17:50:14.177Z,100283.13
2022-11-29T17:52:58.913Z,100280.84
2022-11-29T17:55:43.302Z,100279.25
2022-11-29T17:58:27.962Z,100272.59
2022-11-29T18:01:19.362Z,100278.56
2022-11-29T18:04:06.140Z,100268.44
2022-11-29T18:06:50.996Z,100271.78
2022-11-29T18:09:35.910Z,100255.91
2022-11-29T18:12:21.801Z,100260.72
2022-11-29T18:15:06.865Z,100262.59
2022-11-29T18:17:51.258Z,100266.84
2022-11-29T18:20:35.896Z,100268.31
2022-11-29T18:23:20.166Z,100272.44
2022-11-29T18:26:12.228Z,100264.31
2022-11-29T18:28:58.317Z,100269.91
2022-11-29T18:31:44.495Z,100269.91
2022-11-29T18:34:29.461Z,100271.66
2022-11-29T18:37:23.365Z,100267.66
2022-11-29T18:40:18.587Z,100277.09
2022-11-29T18:43:03.636Z,100285.41
2022-11-29T18:45:48.674Z,100282.06
2022-11-29T18:48:33.564Z,100284.97
2022-11-29T18:51:19.927Z,100277.00
2022-11-29T18:54:05.665Z,100285.66
2022-11-29T18:56:51.129Z,100280.59
2022-11-29T18:59:35.882Z,100284.72
2022-11-29T19:02:21.046Z,100290.47
2022-11-29T19:05:05.929Z,100287.78
2022-11-29T19:07:50.600Z,100292.06
2022-11-29T19:10:36.792Z,100285.91
2022-11-29T19:13:21.455Z,100299.38
2022-11-29T19:16:12.862Z,100291.94
2022-11-29T19:18:59.696Z,100292.06
2022-11-29T19:21:44.514Z,100287.38
2022-11-29T19:24:29.315Z,100293.25
2022-11-29T19:27:14.011Z,100295.78
2022-11-29T19:29:58.702Z,100294.72
2022-11-29T19:32:43.516Z,100302.44
2022-11-29T19:35:28.334Z,100304.06
2022-11-29T19:38:14.790Z,100302.59
2022-11-29T19:40:59.174Z,100299.25
2022-11-29T19:43:44.658Z,100302.44
2022-11-29T19:46:41.136Z,100299.25
2022-11-29T19:49:25.906Z,100296.06
2022-11-29T19:52:10.737Z,100302.69
2022-11-29T19:54:57.513Z,100305.38
2022-11-29T19:57:42.391Z,100296.84
2022-11-29T20:00:27.585Z,100299.50
2022-11-29T20:03:12.599Z,100304.56
2022-11-29T20:05:57.360Z,100303.78
2022-11-29T20:08:43.419Z,100304.06
2022-11-29T20:11:28.422Z,100298.28
2022-11-29T20:14:13.953Z,100304.97
2022-11-29T20:16:58.871Z,100306.69
2022-11-29T20:19:44.073Z,100304.16
2022-11-29T20:22:29.178Z,100312.31
2022-11-29T20:25:14.034Z,100313.91
2022-11-29T20:27:59.184Z,100308.06
2022-11-29T20:30:44.018Z,100313.91
2022-11-29T20:33:28.652Z,100305.78
2022-11-29T20:36:32.407Z,100312.44
2022-11-29T20:39:28.261Z,100309.91
2022-11-29T20:42:28.598Z,100308.97
2022-11-29T20:45:15.225Z,100307.38
2022-11-29T20:48:11.420Z,100306.59
2022-11-29T20:50:59.255Z,100302.31
2022-11-29T20:53:45.583Z,100308.97
2022-11-29T20:56:30.192Z,100313.13
2022-11-29T20:59:14.698Z,100307.00
2022-11-29T21:02:00.458Z,100303.50
2022-11-29T21:04:45.534Z,100306.19
2022-11-29T21:07:30.647Z,100310.31
2022-11-29T21:10:15.726Z,100305.53
2022-11-29T21:13:00.452Z,100301.94
2022-11-29T21:15:46.071Z,100302.03
2022-11-29T21:18:32.013Z,100302.31
2022-11-29T21:21:52.393Z,100307.25
2022-11-29T21:24:52.368Z,100309.78
2022-11-29T21:27:37.381Z,100310.59
2022-11-29T21:30:23.147Z,100313.78
2022-11-29T21:33:08.916Z,100307.25
2022-11-29T21:35:57.519Z,100305.53
2022-11-29T21:38:42.358Z,100297.94
2022-11-29T21:41:27.243Z,100298.69
2022-11-29T21:44:12.102Z,100290.31
2022-11-29T21:46:56.898Z,100287.91
2022-11-29T21:49:41.972Z,100286.97
2022-11-29T21:52:26.698Z,100295.09
2022-11-29T21:55:11.538Z,100295.25
2022-11-29T21:57:56.327Z,100292.72
2022-11-29T22:00:42.370Z,100294.59
2022-11-29T22:03:27.462Z,100290.31
2022-11-29T22:06:13.586Z,100294.31
2022-11-29T22:08:59.364Z,100292.06
2022-11-29T22:11:43.991Z,100294.19
2022-11-29T22:14:28.833Z,100302.59
2022-11-29T22:17:13.377Z,100296.72
2022-11-29T22:19:58.382Z,100299.25
2022-11-29T22:22:43.090Z,100292.72
2022-11-29T22:25:27.729Z,100291.25
2022-11-29T22:28:12.602Z,100303.75
2022-11-29T22:31:08.413Z,100296.16
2022-11-29T22:33:54.524Z,100303.66
2022-11-29T22:36:40.180Z,100304.69
2022-11-29T22:39:25.370Z,100302.84
2022-11-29T22:42:10.251Z,100296.06
2022-11-29T22:44:55.180Z,100295.09
2022-11-29T22:47:39.615Z,100290.84
2022-11-29T22:50:24.958Z,100290.19
2022-11-29T22:53:09.620Z,100287.75
2022-11-29T22:56:01.144Z,100288.56
2022-11-29T22:58:45.953Z,100281.13
2022-11-29T23:01:31.716Z,100280.16
2022-11-29T23:04:16.652Z,100284.41
2022-11-29T23:07:01.245Z,100280.41
2022-11-29T23:09:45.989Z,100286.28
2022-11-29T23:12:30.644Z,100279.50
2022-11-29T23:15:15.681Z,100282.28
2022-11-29T23:18:00.253Z,100286.56
2022-11-29T23:20:45.126Z,100279.09
2022-11-29T23:23:30.570Z,100284.03
2022-11-29T23:26:24.876Z,100273.09
2022-11-29T23:29:12.422Z,100274.69
2022-11-29T23:31:57.057Z,100283.25
2022-11-29T23:34:41.916Z,100283.09
2022-11-29T23:37:26.480Z,100279.91
2022-11-29T23:40:11.500Z,100279.91
2022-11-29T23:42:56.368Z,100288.41
2022-11-29T23:45:41.506Z,100283.25
2022-11-29T23:48:26.571Z,100284.97
2022-11-29T23:51:12.539Z,100287.25
2022-11-29T23:53:57.513Z,100277.88
2022-11-29T23:56:42.340Z,100281.47
2022-11-29T23:59:27.398Z,100270.56
